Time;durP1;ratioP1;P1;durP2;ratioP2;P2;SDS_P1;SDS_P2;PMS_P1;PMS_P2;Temp;Humidity;BMP_temperature;BMP_pressure;BME280_temperature;BME280_humidity;BME280_pressure;Samples;Min_cycle;Max_cycle;Signal;HPM_P1;HPM_P2
2022/06/19 00:01:04;;;;;;;8.03;3.90;;;;;;;;;;4971330;29;20765;-84
2022/06/19 00:03:33;;;;;;;5.30;3.70;;;;;;;;;;4972921;29;20466;-84
2022/06/19 00:05:59;;;;;;;8.10;4.40;;;;;;;;;;4971773;29;20505;-85
2022/06/19 00:08:26;;;;;;;7.37;4.80;;;;;;;;;;4970602;29;20422;-84
2022/06/19 00:10:52;;;;;;;10.20;4.47;;;;;;;;;;4971542;29;20417;-84
2022/06/19 00:13:18;;;;;;;9.00;4.33;;;;;;;;;;4972239;29;20394;-84
2022/06/19 00:15:45;;;;;;;11.20;4.37;;;;;;;;;;4972814;29;20483;-84
2022/06/19 00:18:11;;;;;;;7.10;3.63;;;;;;;;;;4980837;28;20430;-83
2022/06/19 00:20:37;;;;;;;8.33;3.77;;;;;;;;;;4978456;28;20783;-85
2022/06/19 00:23:03;;;;;;;9.17;3.80;;;;;;;;;;4974351;29;20431;-85
2022/06/19 00:25:29;;;;;;;6.13;3.80;;;;;;;;;;4973578;29;20473;-85
2022/06/19 00:27:55;;;;;;;10.50;4.10;;;;;;;;;;4972944;29;20529;-86
2022/06/19 00:30:21;;;;;;;7.90;3.50;;;;;;;;;;4973583;29;20488;-85
2022/06/19 00:32:47;;;;;;;6.90;3.80;;;;;;;;;;4971518;29;20470;-85
2022/06/19 00:35:13;;;;;;;7.03;3.47;;;;;;;;;;4971809;29;20422;-86
2022/06/19 00:37:40;;;;;;;7.93;3.40;;;;;;;;;;4972319;29;20493;-86
2022/06/19 00:40:07;;;;;;;16.90;3.90;;;;;;;;;;4973616;29;20421;-85
2022/06/19 00:42:34;;;;;;;6.80;3.57;;;;;;;;;;4972148;29;20771;-85
2022/06/19 00:45:01;;;;;;;7.23;3.13;;;;;;;;;;4972239;29;20981;-85
2022/06/19 00:47:28;;;;;;;17.27;4.80;;;;;;;;;;4971693;28;20446;-85
2022/06/19 00:49:59;;;;;;;4.63;3.37;;;;;;;;;;4972892;29;20403;-85
2022/06/19 00:52:29;;;;;;;10.40;3.97;;;;;;;;;;4972013;29;20760;-85
2022/06/19 00:55:04;;;;;;;6.30;4.40;;;;;;;;;;4977309;29;20410;-84
2022/06/19 00:57:32;;;;;;;9.23;3.83;;;;;;;;;;4975235;29;20433;-84
2022/06/19 01:00:05;;;;;;;7.70;3.20;;;;;;;;;;4975550;29;20420;-83
2022/06/19 01:02:32;;;;;;;7.30;4.13;;;;;;;;;;4975222;29;20497;-86
2022/06/19 01:04:58;;;;;;;11.30;3.93;;;;;;;;;;4973824;29;20472;-84
2022/06/19 01:07:26;;;;;;;6.20;3.43;;;;;;;;;;4977263;29;20426;-83
2022/06/19 01:09:52;;;;;;;9.90;3.70;;;;;;;;;;4977854;28;20406;-82
2022/06/19 01:12:19;;;;;;;5.00;3.47;;;;;;;;;;4973039;29;20434;-83
2022/06/19 01:14:46;;;;;;;11.63;3.63;;;;;;;;;;4956759;29;20437;-84
2022/06/19 01:17:13;;;;;;;10.30;4.30;;;;;;;;;;4956209;29;20431;-84
2022/06/19 01:19:41;;;;;;;7.87;4.90;;;;;;;;;;4955900;29;20398;-84
2022/06/19 01:22:17;;;;;;;9.27;4.17;;;;;;;;;;4971439;29;20474;-84
2022/06/19 01:25:02;;;;;;;7.67;3.60;;;;;;;;;;4970586;29;20461;-84
2022/06/19 01:30:15;;;;;;;7.97;3.80;;;;;;;;;;4971038;29;20446;-84
2022/06/19 01:32:41;;;;;;;6.03;3.60;;;;;;;;;;4954907;29;20417;-84
2022/06/19 01:35:08;;;;;;;9.60;4.70;;;;;;;;;;4953825;29;20469;-84
2022/06/19 01:37:36;;;;;;;9.60;4.40;;;;;;;;;;4954131;29;20461;-83
2022/06/19 01:40:04;;;;;;;12.17;4.50;;;;;;;;;;4970680;29;20457;-84
2022/06/19 01:42:30;;;;;;;6.27;4.03;;;;;;;;;;4954146;29;20406;-84
2022/06/19 01:44:57;;;;;;;8.10;3.80;;;;;;;;;;4953787;29;20461;-83
2022/06/19 01:47:27;;;;;;;9.50;3.60;;;;;;;;;;4971140;29;20866;-83
2022/06/19 01:49:54;;;;;;;6.97;4.23;;;;;;;;;;4953394;29;20421;-83
2022/06/19 01:52:22;;;;;;;10.90;3.60;;;;;;;;;;4954505;29;20418;-83
2022/06/19 01:54:51;;;;;;;6.07;3.40;;;;;;;;;;4954444;29;20414;-83
2022/06/19 01:57:17;;;;;;;7.80;3.23;;;;;;;;;;4970795;29;20446;-85
2022/06/19 01:59:44;;;;;;;9.80;3.93;;;;;;;;;;4973056;28;20413;-85
2022/06/19 02:02:11;;;;;;;10.53;4.37;;;;;;;;;;4975425;29;20406;-86
2022/06/19 02:04:37;;;;;;;17.73;5.80;;;;;;;;;;4957237;29;20449;-83
2022/06/19 02:07:08;;;;;;;9.27;4.40;;;;;;;;;;4974357;29;20434;-83
2022/06/19 02:09:34;;;;;;;9.33;3.77;;;;;;;;;;4965017;29;20935;-82
2022/06/19 02:12:00;;;;;;;14.40;4.60;;;;;;;;;;4962281;29;20409;-83
2022/06/19 02:14:27;;;;;;;9.20;4.13;;;;;;;;;;4945343;29;20525;-83
2022/06/19 02:16:53;;;;;;;14.07;4.17;;;;;;;;;;4962401;29;20429;-82
2022/06/19 02:19:19;;;;;;;16.87;5.67;;;;;;;;;;4946568;29;20782;-83
2022/06/19 02:21:47;;;;;;;8.53;5.00;;;;;;;;;;4948665;29;20501;-83
2022/06/19 02:24:15;;;;;;;15.20;4.07;;;;;;;;;;4949159;29;20458;-83
2022/06/19 02:26:43;;;;;;;15.33;5.00;;;;;;;;;;4948965;29;20442;-83
2022/06/19 02:29:09;;;;;;;11.17;4.80;;;;;;;;;;4967335;29;20402;-86
2022/06/19 02:31:37;;;;;;;11.57;4.30;;;;;;;;;;4968841;29;20413;-83
2022/06/19 02:34:06;;;;;;;7.40;4.03;;;;;;;;;;4969658;29;20911;-86
2022/06/19 02:36:36;;;;;;;6.93;3.83;;;;;;;;;;4971921;29;20473;-84
2022/06/19 02:39:15;;;;;;;8.73;3.77;;;;;;;;;;4954456;29;20421;-83
2022/06/19 02:41:45;;;;;;;8.33;4.60;;;;;;;;;;4971624;29;20394;-84
2022/06/19 02:44:11;;;;;;;7.73;4.80;;;;;;;;;;4956224;29;20500;-84
2022/06/19 02:46:37;;;;;;;10.27;4.17;;;;;;;;;;4955725;29;20445;-84
2022/06/19 02:49:04;;;;;;;8.60;4.00;;;;;;;;;;4955129;29;20410;-83
2022/06/19 02:51:30;;;;;;;12.20;5.47;;;;;;;;;;4956977;29;20429;-83
2022/06/19 02:53:58;;;;;;;14.50;4.80;;;;;;;;;;4973702;29;20402;-84
2022/06/19 02:56:24;;;;;;;13.80;4.50;;;;;;;;;;4972645;29;20437;-84
2022/06/19 02:58:50;;;;;;;8.97;4.10;;;;;;;;;;4955758;29;20418;-84
2022/06/19 03:01:16;;;;;;;8.97;4.40;;;;;;;;;;4956534;29;20414;-83
2022/06/19 03:03:42;;;;;;;8.53;4.97;;;;;;;;;;4956042;29;20414;-84
2022/06/19 03:06:08;;;;;;;10.50;3.90;;;;;;;;;;4955625;29;20458;-86
2022/06/19 03:08:34;;;;;;;13.83;4.63;;;;;;;;;;4972712;29;20445;-85
2022/06/19 03:11:00;;;;;;;9.43;4.70;;;;;;;;;;4962291;29;20409;-85
2022/06/19 03:13:26;;;;;;;11.90;6.10;;;;;;;;;;4962358;29;20481;-85
2022/06/19 03:16:02;;;;;;;19.20;5.10;;;;;;;;;;4975651;29;20417;-85
2022/06/19 03:18:28;;;;;;;11.33;4.70;;;;;;;;;;4961701;29;20429;-84
2022/06/19 03:20:55;;;;;;;11.23;4.30;;;;;;;;;;4958423;29;20441;-85
2022/06/19 03:23:21;;;;;;;12.23;5.03;;;;;;;;;;4957629;29;20418;-85
2022/06/19 03:25:47;;;;;;;13.83;4.57;;;;;;;;;;4957508;29;20462;-85
2022/06/19 03:28:13;;;;;;;9.00;4.13;;;;;;;;;;4974043;29;20441;-85
2022/06/19 03:30:39;;;;;;;12.50;4.50;;;;;;;;;;4973032;29;20398;-85
2022/06/19 03:33:06;;;;;;;12.30;4.47;;;;;;;;;;4955146;29;20421;-86
2022/06/19 03:35:32;;;;;;;6.60;4.20;;;;;;;;;;4971652;29;20937;-85
2022/06/19 03:37:58;;;;;;;11.70;3.93;;;;;;;;;;5011017;23;20519;-85
2022/06/19 03:40:24;;;;;;;11.80;4.10;;;;;;;;;;5019361;28;20819;-86
2022/06/19 03:42:50;;;;;;;6.90;4.13;;;;;;;;;;5019328;28;20403;-86
2022/06/19 03:45:16;;;;;;;17.70;3.90;;;;;;;;;;5019247;28;20883;-85
2022/06/19 03:47:43;;;;;;;10.00;4.93;;;;;;;;;;5018866;28;20511;-85
2022/06/19 03:50:11;;;;;;;9.83;3.90;;;;;;;;;;5020522;28;20407;-85
2022/06/19 03:52:37;;;;;;;13.57;5.00;;;;;;;;;;5019563;28;20415;-85
2022/06/19 03:55:04;;;;;;;6.87;3.97;;;;;;;;;;5025705;28;20403;-84
2022/06/19 03:57:30;;;;;;;9.27;4.50;;;;;;;;;;5024956;28;20427;-85
2022/06/19 03:59:55;;;;;;;11.00;3.53;;;;;;;;;;5020100;28;20457;-85
2022/06/19 04:02:21;;;;;;;10.63;4.70;;;;;;;;;;5023397;28;20411;-84
2022/06/19 04:04:47;;;;;;;9.57;4.30;;;;;;;;;;5024647;28;20447;-85
2022/06/19 04:07:15;;;;;;;12.50;4.30;;;;;;;;;;5019891;28;20438;-85
2022/06/19 04:09:41;;;;;;;16.80;4.70;;;;;;;;;;5018978;28;20404;-85
2022/06/19 04:12:07;;;;;;;13.73;3.90;;;;;;;;;;5019884;28;20423;-85
2022/06/19 04:14:33;;;;;;;9.23;4.80;;;;;;;;;;5018992;28;20407;-85
2022/06/19 04:16:59;;;;;;;11.33;4.60;;;;;;;;;;5018906;28;20423;-85
2022/06/19 04:19:27;;;;;;;10.07;3.90;;;;;;;;;;5019061;28;20407;-85
2022/06/19 04:21:53;;;;;;;9.97;4.50;;;;;;;;;;5019664;28;20407;-83
2022/06/19 04:24:22;;;;;;;8.67;4.10;;;;;;;;;;5028989;28;20501;-82
2022/06/19 04:26:48;;;;;;;12.60;3.80;;;;;;;;;;5014296;28;20435;-82
2022/06/19 04:29:14;;;;;;;8.67;3.90;;;;;;;;;;5012434;28;20439;-85
2022/06/19 04:31:41;;;;;;;11.87;3.87;;;;;;;;;;5030409;28;20407;-82
2022/06/19 04:34:08;;;;;;;10.03;3.97;;;;;;;;;;5028269;28;20498;-83
2022/06/19 04:36:34;;;;;;;11.10;3.80;;;;;;;;;;5008790;28;20439;-83
2022/06/19 04:39:00;;;;;;;8.93;3.77;;;;;;;;;;5031016;28;20399;-85
2022/06/19 04:41:26;;;;;;;7.10;3.10;;;;;;;;;;5030999;28;20399;-82
2022/06/19 04:43:52;;;;;;;9.83;3.80;;;;;;;;;;5031747;28;20403;-83
2022/06/19 04:46:19;;;;;;;14.93;4.90;;;;;;;;;;5031609;28;20419;-83
2022/06/19 04:48:45;;;;;;;7.73;3.90;;;;;;;;;;5031759;28;20407;-83
2022/06/19 04:51:12;;;;;;;11.03;3.77;;;;;;;;;;5030566;28;20438;-83
2022/06/19 04:53:39;;;;;;;11.27;5.83;;;;;;;;;;5017018;28;20422;-85
2022/06/19 04:56:05;;;;;;;14.80;4.30;;;;;;;;;;5018018;28;20473;-85
2022/06/19 04:58:32;;;;;;;11.33;4.27;;;;;;;;;;5017372;28;20545;-86
2022/06/19 05:01:01;;;;;;;16.30;3.90;;;;;;;;;;5017988;28;20415;-85
2022/06/19 05:03:27;;;;;;;9.80;4.43;;;;;;;;;;5019429;28;20446;-84
2022/06/19 05:05:54;;;;;;;13.73;4.20;;;;;;;;;;5022828;28;20455;-84
2022/06/19 05:08:20;;;;;;;9.37;4.20;;;;;;;;;;5019039;28;20511;-86
2022/06/19 05:10:46;;;;;;;10.73;4.40;;;;;;;;;;5000319;28;20499;-86
2022/06/19 05:13:19;;;;;;;11.40;4.20;;;;;;;;;;5018365;28;20427;-86
2022/06/19 05:15:46;;;;;;;9.53;4.13;;;;;;;;;;5017694;28;20435;-86
2022/06/19 05:18:12;;;;;;;9.90;4.37;;;;;;;;;;5018115;28;20478;-85
2022/06/19 05:20:38;;;;;;;13.67;4.30;;;;;;;;;;5018342;28;20414;-86
2022/06/19 05:23:05;;;;;;;16.30;4.47;;;;;;;;;;5017812;28;20414;-86
2022/06/19 05:25:31;;;;;;;8.50;3.50;;;;;;;;;;5017854;28;20470;-86
2022/06/19 05:27:57;;;;;;;8.60;3.77;;;;;;;;;;5017657;28;20419;-86
2022/06/19 05:30:23;;;;;;;12.07;3.90;;;;;;;;;;5018249;28;20899;-86
2022/06/19 05:32:49;;;;;;;13.40;4.00;;;;;;;;;;5000249;28;20844;-86
2022/06/19 05:35:16;;;;;;;9.03;3.97;;;;;;;;;;4999102;28;20435;-85
2022/06/19 05:37:42;;;;;;;14.73;5.30;;;;;;;;;;5018475;28;20443;-86
2022/06/19 05:40:09;;;;;;;11.93;4.20;;;;;;;;;;5004915;28;20454;-85
2022/06/19 05:42:35;;;;;;;12.93;5.10;;;;;;;;;;5037040;28;20404;-86
2022/06/19 05:45:01;;;;;;;10.40;4.63;;;;;;;;;;5019607;28;20451;-86
2022/06/19 05:47:27;;;;;;;15.20;4.77;;;;;;;;;;5019445;28;20468;-86
2022/06/19 05:49:53;;;;;;;12.27;5.63;;;;;;;;;;5019592;28;20412;-86
2022/06/19 05:52:22;;;;;;;14.03;4.87;;;;;;;;;;5019578;28;20420;-86
2022/06/19 05:54:48;;;;;;;10.40;4.17;;;;;;;;;;5000951;28;20473;-86
2022/06/19 05:57:15;;;;;;;16.53;3.87;;;;;;;;;;5018179;28;20431;-86
2022/06/19 05:59:41;;;;;;;11.93;4.27;;;;;;;;;;5018247;28;20414;-86
2022/06/19 06:02:09;;;;;;;13.10;4.60;;;;;;;;;;5018501;28;20419;-86
2022/06/19 06:04:35;;;;;;;10.57;4.30;;;;;;;;;;5017231;28;20890;-86
2022/06/19 06:07:01;;;;;;;8.80;4.50;;;;;;;;;;5018483;28;20423;-85
2022/06/19 06:09:26;;;;;;;12.27;4.80;;;;;;;;;;5001338;28;20780;-85
2022/06/19 06:11:53;;;;;;;10.57;4.23;;;;;;;;;;5018839;28;20412;-85
2022/06/19 06:14:19;;;;;;;17.10;4.90;;;;;;;;;;5018857;28;20431;-85
2022/06/19 06:16:45;;;;;;;13.23;5.57;;;;;;;;;;5019521;28;20499;-85
2022/06/19 06:19:11;;;;;;;17.33;4.20;;;;;;;;;;5019722;28;20903;-86
2022/06/19 06:21:37;;;;;;;7.97;4.47;;;;;;;;;;5018220;28;20923;-85
2022/06/19 06:24:03;;;;;;;10.17;4.50;;;;;;;;;;5018576;28;20468;-85
2022/06/19 06:26:30;;;;;;;13.17;4.30;;;;;;;;;;5023118;28;20455;-84
2022/06/19 06:28:57;;;;;;;24.80;5.23;;;;;;;;;;5027222;28;20490;-83
2022/06/19 06:31:23;;;;;;;12.50;4.43;;;;;;;;;;5014304;28;20410;-83
2022/06/19 06:33:49;;;;;;;16.57;4.40;;;;;;;;;;5013759;28;20403;-83
2022/06/19 06:36:16;;;;;;;20.87;4.10;;;;;;;;;;4996472;28;20434;-84
2022/06/19 06:38:44;;;;;;;11.33;3.70;;;;;;;;;;5014966;28;20427;-84
2022/06/19 06:41:10;;;;;;;14.53;5.20;;;;;;;;;;5014862;28;20400;-84
2022/06/19 06:43:37;;;;;;;12.40;4.33;;;;;;;;;;5014743;28;20414;-83
2022/06/19 06:46:07;;;;;;;20.27;5.53;;;;;;;;;;5015993;28;20870;-83
2022/06/19 06:48:33;;;;;;;10.97;4.83;;;;;;;;;;5018363;28;20410;-83
2022/06/19 06:50:59;;;;;;;13.57;4.83;;;;;;;;;;5000200;28;20495;-84
2022/06/19 06:53:25;;;;;;;13.40;4.33;;;;;;;;;;5018490;28;20418;-84
2022/06/19 06:55:55;;;;;;;12.80;4.50;;;;;;;;;;5000659;28;20420;-84
2022/06/19 06:58:21;;;;;;;16.93;4.63;;;;;;;;;;5018745;28;20790;-85
2022/06/19 07:00:47;;;;;;;16.07;4.30;;;;;;;;;;5018765;28;20404;-83
2022/06/19 07:03:13;;;;;;;10.97;4.30;;;;;;;;;;5018980;28;20436;-85
2022/06/19 07:05:39;;;;;;;13.30;6.20;;;;;;;;;;5019390;28;20513;-83
2022/06/19 07:08:05;;;;;;;9.13;3.50;;;;;;;;;;5018914;28;20473;-84
2022/06/19 07:10:32;;;;;;;13.20;4.00;;;;;;;;;;5018808;28;20399;-83
2022/06/19 07:12:58;;;;;;;12.87;4.50;;;;;;;;;;5001405;28;20549;-84
2022/06/19 07:15:24;;;;;;;14.27;4.77;;;;;;;;;;5018976;28;20411;-85
2022/06/19 07:17:51;;;;;;;15.93;4.80;;;;;;;;;;5001082;28;20427;-83
2022/06/19 07:20:17;;;;;;;13.33;4.40;;;;;;;;;;5018978;28;20924;-84
2022/06/19 07:22:43;;;;;;;19.90;5.67;;;;;;;;;;5019178;28;20472;-83
2022/06/19 07:25:14;;;;;;;12.23;4.70;;;;;;;;;;5018520;28;20447;-85
2022/06/19 07:27:40;;;;;;;17.43;4.33;;;;;;;;;;5001128;28;20479;-85
2022/06/19 07:30:07;;;;;;;19.00;4.03;;;;;;;;;;5018742;28;20478;-85
2022/06/19 07:32:33;;;;;;;15.37;4.60;;;;;;;;;;5026480;28;20399;-82
2022/06/19 07:34:59;;;;;;;14.17;4.33;;;;;;;;;;5025760;28;20466;-86
2022/06/19 07:37:25;;;;;;;13.90;4.47;;;;;;;;;;5019842;28;20450;-86
2022/06/19 07:39:51;;;;;;;9.83;4.57;;;;;;;;;;5019775;28;20783;-86
2022/06/19 07:42:17;;;;;;;12.53;4.10;;;;;;;;;;5020081;28;20412;-86
2022/06/19 07:44:43;;;;;;;9.97;4.80;;;;;;;;;;5019336;28;20470;-86
2022/06/19 07:50:09;;;;;;;16.63;4.60;;;;;;;;;;5020023;28;20430;-86
2022/06/19 07:52:36;;;;;;;13.93;4.50;;;;;;;;;;5020102;28;20388;-86
2022/06/19 07:55:02;;;;;;;18.60;5.43;;;;;;;;;;5025993;28;20411;-85
2022/06/19 07:57:28;;;;;;;16.17;4.80;;;;;;;;;;5029269;28;20466;-84
2022/06/19 07:59:54;;;;;;;17.67;4.53;;;;;;;;;;5029421;28;20507;-84
2022/06/19 08:02:20;;;;;;;14.83;3.90;;;;;;;;;;5029993;28;20407;-83
2022/06/19 08:04:46;;;;;;;15.13;3.90;;;;;;;;;;5023552;28;20451;-86
2022/06/19 08:07:13;;;;;;;14.23;3.80;;;;;;;;;;5019869;28;20427;-86
2022/06/19 08:09:39;;;;;;;12.03;4.57;;;;;;;;;;5019523;28;20844;-86
2022/06/19 08:12:05;;;;;;;12.53;4.60;;;;;;;;;;5019493;28;20792;-86
2022/06/19 08:14:31;;;;;;;12.10;5.27;;;;;;;;;;5018105;28;20769;-84
2022/06/19 08:16:57;;;;;;;18.03;4.93;;;;;;;;;;5015306;28;20875;-84
2022/06/19 08:19:23;;;;;;;13.73;4.90;;;;;;;;;;5015294;28;20411;-84
2022/06/19 08:21:49;;;;;;;17.03;4.10;;;;;;;;;;5015817;28;20407;-83
2022/06/19 08:24:17;;;;;;;13.57;5.07;;;;;;;;;;5015583;28;20422;-82
2022/06/19 08:26:43;;;;;;;15.50;4.57;;;;;;;;;;5016087;28;20796;-84
2022/06/19 08:29:09;;;;;;;17.57;6.47;;;;;;;;;;4998586;28;20427;-85
2022/06/19 08:31:35;;;;;;;10.30;4.63;;;;;;;;;;5016703;28;20410;-86
2022/06/19 08:34:01;;;;;;;12.70;4.20;;;;;;;;;;5017413;28;20466;-83
2022/06/19 08:36:27;;;;;;;11.00;5.10;;;;;;;;;;5017385;28;20419;-83
2022/06/19 08:38:56;;;;;;;16.93;4.17;;;;;;;;;;5017309;28;20491;-82
2022/06/19 08:41:40;;;;;;;13.37;5.13;;;;;;;;;;5016984;28;20411;-85
2022/06/19 08:44:13;;;;;;;15.93;4.53;;;;;;;;;;5016596;28;20478;-86
2022/06/19 08:46:52;;;;;;;17.03;5.50;;;;;;;;;;5019712;28;20495;-86
2022/06/19 08:49:21;;;;;;;15.07;5.30;;;;;;;;;;5005099;28;20445;-84
2022/06/19 08:51:50;;;;;;;12.03;4.90;;;;;;;;;;5025402;28;20449;-86
2022/06/19 08:54:19;;;;;;;9.93;3.83;;;;;;;;;;5019814;28;20437;-86
2022/06/19 08:56:49;;;;;;;10.63;5.70;;;;;;;;;;5020553;28;20428;-85
2022/06/19 08:59:26;;;;;;;12.93;4.97;;;;;;;;;;5019728;28;20387;-86
2022/06/19 09:01:52;;;;;;;15.00;4.77;;;;;;;;;;5019659;28;20383;-86
2022/06/19 09:07:23;;;;;;;17.33;5.23;;;;;;;;;;5018978;28;20454;-86
2022/06/19 09:10:08;;;;;;;12.03;4.57;;;;;;;;;;5017835;28;20391;-86
2022/06/19 09:12:39;;;;;;;13.13;4.50;;;;;;;;;;5017861;28;20403;-86
2022/06/19 09:15:15;;;;;;;11.23;4.23;;;;;;;;;;5018145;28;20395;-86
2022/06/19 09:17:44;;;;;;;19.90;4.80;;;;;;;;;;5001020;28;20426;-86
2022/06/19 09:20:20;;;;;;;16.77;6.70;;;;;;;;;;5018345;28;20434;-86
2022/06/19 09:22:46;;;;;;;14.23;6.03;;;;;;;;;;5018842;28;20430;-86
2022/06/19 09:25:30;;;;;;;16.40;4.90;;;;;;;;;;5017970;28;20451;-86
2022/06/19 09:28:06;;;;;;;21.83;6.37;;;;;;;;;;5001185;28;20419;-86
2022/06/19 09:30:55;;;;;;;13.73;5.50;;;;;;;;;;5018232;28;20383;-86
2022/06/19 09:33:21;;;;;;;12.90;5.10;;;;;;;;;;5010783;28;20419;-86
2022/06/19 09:35:50;;;;;;;13.10;5.30;;;;;;;;;;5019029;28;20762;-86
2022/06/19 09:38:20;;;;;;;14.73;4.90;;;;;;;;;;5023040;23;20474;-84
2022/06/19 09:40:49;;;;;;;15.97;5.57;;;;;;;;;;5008649;28;20412;-84
2022/06/19 09:43:28;;;;;;;20.00;6.63;;;;;;;;;;4982690;28;20397;-84
2022/06/19 09:46:08;;;;;;;12.63;5.10;;;;;;;;;;5000396;28;20460;-84
2022/06/19 09:48:37;;;;;;;15.87;6.47;;;;;;;;;;5000419;28;20435;-84
2022/06/19 09:51:09;;;;;;;14.90;5.50;;;;;;;;;;5000607;28;20428;-85
2022/06/19 09:53:43;;;;;;;11.20;5.50;;;;;;;;;;5000438;28;20409;-84
2022/06/19 09:56:22;;;;;;;15.03;6.00;;;;;;;;;;5000309;28;20404;-83
2022/06/19 09:58:51;;;;;;;12.50;5.53;;;;;;;;;;5001511;28;20924;-85
2022/06/19 10:01:18;;;;;;;15.80;6.40;;;;;;;;;;5000117;28;20404;-85
2022/06/19 10:03:46;;;;;;;11.90;5.73;;;;;;;;;;5000373;28;20405;-85
2022/06/19 10:06:26;;;;;;;11.23;5.83;;;;;;;;;;4981650;28;20475;-84
2022/06/19 10:08:56;;;;;;;12.80;5.70;;;;;;;;;;5000084;28;20424;-83
2022/06/19 10:11:24;;;;;;;16.03;6.20;;;;;;;;;;4999497;28;20455;-83
2022/06/19 10:13:59;;;;;;;15.93;6.30;;;;;;;;;;4999823;28;20404;-84
2022/06/19 10:16:28;;;;;;;10.70;7.27;;;;;;;;;;4998901;28;20466;-83
2022/06/19 10:18:55;;;;;;;19.93;7.13;;;;;;;;;;4980197;28;20436;-83
2022/06/19 10:24:26;;;;;;;17.97;6.37;;;;;;;;;;5002885;28;20390;-84
2022/06/19 10:26:57;;;;;;;10.43;6.67;;;;;;;;;;5000373;28;20395;-82
2022/06/19 10:29:30;;;;;;;12.27;7.07;;;;;;;;;;4983515;28;20456;-83
2022/06/19 10:32:12;;;;;;;20.80;6.87;;;;;;;;;;5006969;28;20434;-82
2022/06/19 10:34:47;;;;;;;19.13;7.80;;;;;;;;;;5001701;28;20416;-82
2022/06/19 10:37:13;;;;;;;12.97;6.03;;;;;;;;;;5004613;28;20444;-84
2022/06/19 10:39:42;;;;;;;17.33;6.40;;;;;;;;;;5002068;28;20400;-85
2022/06/19 10:42:26;;;;;;;13.33;7.07;;;;;;;;;;5001230;28;20466;-84
2022/06/19 10:45:08;;;;;;;13.67;6.40;;;;;;;;;;5001372;28;20467;-84
2022/06/19 10:47:54;;;;;;;13.50;7.07;;;;;;;;;;5002133;28;20507;-82
2022/06/19 10:50:36;;;;;;;17.63;7.07;;;;;;;;;;4984930;28;20411;-83
2022/06/19 10:53:21;;;;;;;11.77;7.30;;;;;;;;;;5002537;28;20381;-83
2022/06/19 10:55:52;;;;;;;15.53;7.47;;;;;;;;;;5002950;28;20838;-83
2022/06/19 10:58:22;;;;;;;13.60;6.90;;;;;;;;;;5002323;28;20424;-84
2022/06/19 11:00:53;;;;;;;16.57;6.23;;;;;;;;;;5003105;28;20446;-84
2022/06/19 11:06:23;;;;;;;16.87;6.80;;;;;;;;;;5002013;28;20459;-84
2022/06/19 11:08:53;;;;;;;13.70;7.30;;;;;;;;;;5002008;28;20832;-85
2022/06/19 11:11:21;;;;;;;19.20;7.33;;;;;;;;;;5002206;28;20381;-84
2022/06/19 11:14:07;;;;;;;16.93;6.67;;;;;;;;;;5002309;28;20428;-84
2022/06/19 11:16:34;;;;;;;18.00;7.63;;;;;;;;;;5001959;28;20400;-84
2022/06/19 11:19:00;;;;;;;16.60;8.10;;;;;;;;;;5000953;28;20889;-84
2022/06/19 11:21:29;;;;;;;13.43;7.40;;;;;;;;;;5001536;28;20459;-85
2022/06/19 11:23:57;;;;;;;13.60;7.00;;;;;;;;;;5000749;28;20492;-84
2022/06/19 11:26:25;;;;;;;19.57;6.43;;;;;;;;;;5000788;28;20943;-84
2022/06/19 11:29:01;;;;;;;15.77;7.33;;;;;;;;;;5002790;28;20444;-85
2022/06/19 11:31:28;;;;;;;14.57;6.43;;;;;;;;;;4983516;28;20978;-85
2022/06/19 11:33:57;;;;;;;20.50;9.37;;;;;;;;;;5000387;28;20434;-84
2022/06/19 11:36:29;;;;;;;16.67;8.97;;;;;;;;;;5001437;28;20408;-83
2022/06/19 11:38:55;;;;;;;16.00;8.10;;;;;;;;;;5001390;28;20448;-83
2022/06/19 11:41:21;;;;;;;16.53;7.40;;;;;;;;;;5002157;28;20416;-83
2022/06/19 11:43:59;;;;;;;14.90;7.10;;;;;;;;;;5001387;28;20436;-83
2022/06/19 11:46:26;;;;;;;13.50;6.17;;;;;;;;;;5001415;28;20520;-84
2022/06/19 11:48:52;;;;;;;14.90;7.37;;;;;;;;;;5001663;28;20438;-83
2022/06/19 11:51:21;;;;;;;12.10;6.77;;;;;;;;;;5001217;28;20435;-84
2022/06/19 11:53:52;;;;;;;14.70;6.83;;;;;;;;;;4984913;28;20420;-84
2022/06/19 11:56:35;;;;;;;12.30;7.10;;;;;;;;;;5001219;28;20389;-85
2022/06/19 11:59:01;;;;;;;17.03;7.37;;;;;;;;;;5001798;28;20563;-84
2022/06/19 12:01:46;;;;;;;12.37;6.27;;;;;;;;;;5001032;28;20436;-84
2022/06/19 12:04:18;;;;;;;13.90;7.60;;;;;;;;;;5002352;28;20423;-84
2022/06/19 12:06:49;;;;;;;14.33;7.33;;;;;;;;;;5001152;28;20455;-84
2022/06/19 12:09:34;;;;;;;12.77;6.53;;;;;;;;;;5001214;28;20417;-84
2022/06/19 12:12:02;;;;;;;14.20;7.07;;;;;;;;;;5000943;28;20462;-84
2022/06/19 12:14:29;;;;;;;17.53;8.20;;;;;;;;;;4983337;28;20404;-84
2022/06/19 12:17:25;;;;;;;16.93;7.57;;;;;;;;;;5001382;28;20424;-84
2022/06/19 12:19:51;;;;;;;19.20;7.13;;;;;;;;;;4983314;28;20416;-84
2022/06/19 12:22:18;;;;;;;13.97;7.63;;;;;;;;;;5001268;28;20768;-84
2022/06/19 12:24:47;;;;;;;12.43;7.13;;;;;;;;;;4999638;28;20443;-84
2022/06/19 12:27:15;;;;;;;16.33;8.53;;;;;;;;;;5000566;28;20483;-84
2022/06/19 12:29:47;;;;;;;11.20;7.10;;;;;;;;;;4983480;28;20408;-84
2022/06/19 12:32:37;;;;;;;19.67;7.10;;;;;;;;;;5002080;28;20623;-84
2022/06/19 12:35:07;;;;;;;11.63;6.90;;;;;;;;;;5009549;28;20389;-83
2022/06/19 12:37:33;;;;;;;12.23;7.30;;;;;;;;;;5012634;28;20463;-83
2022/06/19 12:39:59;;;;;;;16.57;6.97;;;;;;;;;;5004107;28;20412;-84
2022/06/19 12:42:34;;;;;;;13.23;6.77;;;;;;;;;;5001931;28;20432;-84
2022/06/19 12:45:07;;;;;;;11.33;6.93;;;;;;;;;;5000909;28;20510;-84
2022/06/19 12:47:33;;;;;;;15.20;8.47;;;;;;;;;;5000403;28;20428;-84
2022/06/19 12:50:02;;;;;;;17.30;8.07;;;;;;;;;;5001265;28;20459;-84
2022/06/19 12:52:37;;;;;;;11.13;7.10;;;;;;;;;;4982953;28;20412;-83
2022/06/19 12:55:22;;;;;;;12.87;6.83;;;;;;;;;;5001754;28;20416;-85
2022/06/19 12:57:48;;;;;;;13.77;7.40;;;;;;;;;;5000945;28;20432;-85
2022/06/19 13:00:14;;;;;;;10.23;7.67;;;;;;;;;;5000520;28;20867;-85
2022/06/19 13:02:59;;;;;;;12.90;7.27;;;;;;;;;;4999603;28;20408;-85
2022/06/19 13:05:34;;;;;;;12.73;6.60;;;;;;;;;;5001905;28;20447;-81
2022/06/19 13:08:08;;;;;;;15.30;8.83;;;;;;;;;;5000479;28;20514;-85
2022/06/19 13:10:38;;;;;;;16.47;9.60;;;;;;;;;;5000314;28;20494;-85
2022/06/19 13:13:07;;;;;;;13.47;7.07;;;;;;;;;;4983088;28;20396;-85
2022/06/19 13:15:39;;;;;;;10.43;6.83;;;;;;;;;;5000202;28;20409;-82
2022/06/19 13:18:26;;;;;;;17.93;7.63;;;;;;;;;;5000107;28;20956;-84
2022/06/19 13:21:10;;;;;;;16.53;7.07;;;;;;;;;;4960392;28;20472;-83
2022/06/19 13:23:43;;;;;;;16.83;7.33;;;;;;;;;;4999720;28;20499;-85
2022/06/19 13:26:09;;;;;;;16.30;7.23;;;;;;;;;;4999923;28;20440;-85
2022/06/19 13:28:42;;;;;;;16.50;8.30;;;;;;;;;;4999631;28;20434;-84
2022/06/19 13:31:08;;;;;;;11.77;7.13;;;;;;;;;;4982097;28;20495;-85
2022/06/19 13:33:52;;;;;;;13.90;6.80;;;;;;;;;;4999584;28;20888;-85
2022/06/19 13:36:30;;;;;;;10.03;6.40;;;;;;;;;;5000003;28;20482;-82
2022/06/19 13:38:57;;;;;;;15.90;7.40;;;;;;;;;;4999622;28;20506;-85
2022/06/19 13:41:28;;;;;;;24.20;8.07;;;;;;;;;;4999447;28;20408;-85
2022/06/19 13:44:07;;;;;;;15.43;7.27;;;;;;;;;;4999549;28;20384;-85
2022/06/19 13:46:42;;;;;;;12.30;7.23;;;;;;;;;;4999483;28;20444;-85
2022/06/19 13:49:14;;;;;;;11.80;7.17;;;;;;;;;;4999551;28;20486;-83
2022/06/19 13:51:59;;;;;;;14.90;7.10;;;;;;;;;;4999743;28;20777;-83
2022/06/19 13:54:46;;;;;;;11.17;6.10;;;;;;;;;;4999905;28;20749;-85
2022/06/19 13:57:29;;;;;;;14.13;6.67;;;;;;;;;;5003613;28;20420;-85
2022/06/19 13:59:58;;;;;;;11.87;6.90;;;;;;;;;;5003919;28;20485;-83
2022/06/19 14:02:24;;;;;;;10.70;6.20;;;;;;;;;;5002484;28;20938;-82
2022/06/19 14:04:59;;;;;;;15.63;7.87;;;;;;;;;;4998359;28;20448;-81
2022/06/19 14:07:43;;;;;;;17.20;6.83;;;;;;;;;;5000580;28;20507;-83
2022/06/19 14:10:16;;;;;;;12.03;6.60;;;;;;;;;;5001376;28;20915;-85
2022/06/19 14:12:55;;;;;;;17.70;6.87;;;;;;;;;;4984458;28;20396;-82
2022/06/19 14:15:24;;;;;;;15.57;7.03;;;;;;;;;;5001545;28;20399;-82
2022/06/19 14:18:09;;;;;;;9.53;6.47;;;;;;;;;;4998221;28;20473;-82
2022/06/19 14:20:55;;;;;;;15.47;5.97;;;;;;;;;;4998199;28;20404;-82
2022/06/19 14:23:21;;;;;;;15.03;7.07;;;;;;;;;;4998543;28;20534;-83
2022/06/19 14:25:53;;;;;;;12.93;6.10;;;;;;;;;;5000610;28;20514;-82
2022/06/19 14:28:22;;;;;;;20.40;7.17;;;;;;;;;;5002120;28;20420;-83
2022/06/19 14:30:50;;;;;;;14.23;6.40;;;;;;;;;;5000626;28;20762;-82
2022/06/19 14:33:40;;;;;;;14.20;6.87;;;;;;;;;;4999487;28;20763;-84
2022/06/19 14:36:09;;;;;;;16.53;6.33;;;;;;;;;;5000573;28;20388;-82
2022/06/19 14:38:35;;;;;;;13.20;6.50;;;;;;;;;;4997737;28;20446;-83
2022/06/19 14:41:06;;;;;;;8.83;5.60;;;;;;;;;;4999859;28;20466;-83
2022/06/19 14:43:34;;;;;;;11.30;6.03;;;;;;;;;;4999430;28;20408;-82
2022/06/19 14:46:03;;;;;;;17.10;6.17;;;;;;;;;;4998148;28;20451;-83
2022/06/19 14:48:32;;;;;;;14.60;6.80;;;;;;;;;;5000792;28;20428;-84
2022/06/19 14:50:58;;;;;;;11.07;6.40;;;;;;;;;;4982523;28;20428;-83
2022/06/19 14:53:43;;;;;;;17.20;6.57;;;;;;;;;;4999513;28;20418;-84
2022/06/19 14:56:09;;;;;;;9.63;6.57;;;;;;;;;;5000879;28;20415;-84
2022/06/19 14:58:39;;;;;;;12.40;6.83;;;;;;;;;;5004027;28;20808;-84
2022/06/19 15:01:07;;;;;;;12.93;7.87;;;;;;;;;;5005452;28;20400;-84